Time,TemperatureF,DewpointF,PressureIn,WindDirection,WindDirectionDegrees,WindSpeedMPH,WindSpeedGustMPH,Humidity,HourlyPrecipIn,Conditions,Clouds,dailyrainin,SoftwareType,DateUTC
2013-03-15 00:01:00,44.2,33.1,29.35,East,90,4.6,8.5,65,0.26,,,0.00,WUHU216HW,2013-03-14 23:01:00,
2013-03-15 00:06:00,44.2,33.5,29.36,ENE,65,1.3,4.6,66,0.26,,,0.00,WUHU216HW,2013-03-14 23:06:00,
2013-03-15 00:11:00,44.4,33.7,29.36,ESE,113,2.0,4.2,66,0.26,,,0.00,WUHU216HW,2013-03-14 23:11:00,
2013-03-15 00:16:00,44.4,33.3,29.37,South,180,0.0,2.4,65,0.26,,,0.00,WUHU216HW,2013-03-14 23:16:00,
2013-03-15 00:22:00,44.6,33.1,29.36,North,0,1.5,1.7,64,0.24,,,0.00,WUHU216HW,2013-03-14 23:22:00,
2013-03-15 00:27:00,44.6,33.5,29.36,ENE,68,2.2,4.6,65,0.24,,,0.00,WUHU216HW,2013-03-14 23:27:00,
2013-03-15 00:32:00,44.7,33.3,29.36,ENE,73,2.1,4.6,64,0.20,,,0.00,WUHU216HW,2013-03-14 23:32:00,
2013-03-15 00:37:00,44.7,33.3,29.35,ENE,68,1.3,4.4,64,0.17,,,0.00,WUHU216HW,2013-03-14 23:37:00,
2013-03-15 00:42:00,44.7,33.3,29.35,NE,53,4.7,5.8,64,0.12,,,0.00,WUHU216HW,2013-03-14 23:42:00,
2013-03-15 00:47:00,44.7,33.6,29.35,ENE,68,4.6,6.4,65,0.12,,,0.02,WUHU216HW,2013-03-14 23:47:00,
2013-03-15 00:52:00,44.9,33.4,29.35,NNE,23,0.0,7.6,64,0.04,,,0.02,WUHU216HW,2013-03-14 23:52:00,
2013-03-15 00:57:00,45.1,35.1,29.35,ENE,68,3.0,7.6,68,0.02,,,0.02,WUHU216HW,2013-03-14 23:57:00,
2013-03-15 01:02:00,45.3,35.3,29.36,South,180,7.1,7.1,68,0.04,,,0.04,WUHU216HW,2013-03-15 00:02:00,
2013-03-15 01:07:00,44.7,33.6,29.36,WSW,238,4.7,9.1,65,0.04,,,0.04,WUHU216HW,2013-03-15 00:07:00,
2013-03-15 01:12:00,44.4,32.2,29.36,SW,225,3.5,9.1,62,0.06,,,0.06,WUHU216HW,2013-03-15 00:12:00,
2013-03-15 01:17:00,44.4,31.4,29.36,SSW,203,0.0,4.6,60,0.06,,,0.06,WUHU216HW,2013-03-15 00:17:00,
2013-03-15 01:23:00,44.4,30.5,29.37,East,90,1.1,4.0,58,0.08,,,0.08,WUHU216HW,2013-03-15 00:23:00,
2013-03-15 01:28:00,44.4,29.2,29.37,NE,54,2.0,2.9,55,0.08,,,0.08,WUHU216HW,2013-03-15 00:28:00,
2013-03-15 01:32:00,44.2,28.1,29.37,NNE,23,2.6,2.9,53,0.08,,,0.08,WUHU216HW,2013-03-15 00:32:00,
2013-03-15 01:38:00,44.0,27.9,29.37,WNW,293,0.0,2.6,53,0.08,,,0.08,WUHU216HW,2013-03-15 00:38:00,
2013-03-15 01:43:00,43.8,27.3,29.37,SW,225,4.0,4.0,52,0.06,,,0.08,WUHU216HW,2013-03-15 00:43:00,
2013-03-15 01:48:00,43.8,27.3,29.37,WSW,248,3.3,4.4,52,0.06,,,0.08,WUHU216HW,2013-03-15 00:48:00,
2013-03-15 01:53:00,43.8,27.3,29.37,SW,225,2.0,4.4,51,0.08,,,0.10,WUHU216HW,2013-03-15 00:53:00,
2013-03-15 01:58:00,43.7,26.7,29.37,SW,225,0.0,2.0,51,0.06,,,0.10,WUHU216HW,2013-03-15 00:58:00,
2013-03-15 02:03:00,43.7,26.3,29.38,NW,315,0.0,0.0,50,0.08,,,0.12,WUHU216HW,2013-03-15 01:03:00,
2013-03-15 02:08:00,43.7,26.3,29.38,WNW,295,2.8,3.1,50,0.06,,,0.12,WUHU216HW,2013-03-15 01:08:00,
2013-03-15 02:13:00,43.5,26.1,29.38,SW,234,2.2,3.3,50,0.06,,,0.12,WUHU216HW,2013-03-15 01:13:00,
2013-03-15 02:18:00,42.6,27.0,29.39,ENE,68,5.1,7.8,54,0.10,,,0.16,WUHU216HW,2013-03-15 01:18:00,
2013-03-15 02:23:00,42.4,29.8,29.39,ESE,113,5.8,7.8,63,0.08,,,0.16,WUHU216HW,2013-03-15 01:23:00,
2013-03-15 02:28:00,42.0,33.4,29.39,ESE,122,2.9,6.0,71,0.11,,,0.19,WUHU216HW,2013-03-15 01:28:00,
2013-03-15 02:33:00,41.9,33.2,29.40,ESE,119,4.0,7.8,71,0.12,,,0.20,WUHU216HW,2013-03-15 01:33:00,
2013-03-15 02:38:00,41.9,33.2,29.41,SE,143,5.4,7.8,71,0.12,,,0.20,WUHU216HW,2013-03-15 01:38:00,
2013-03-15 02:43:00,41.9,31.3,29.41,West,270,1.7,6.7,66,0.14,,,0.22,WUHU216HW,2013-03-15 01:43:00,
2013-03-15 02:48:00,41.9,30.3,29.41,ESE,113,2.4,4.9,63,0.16,,,0.24,WUHU216HW,2013-03-15 01:48:00,
2013-03-15 02:53:00,42.0,29.9,29.41,SW,225,2.2,3.1,62,0.14,,,0.24,WUHU216HW,2013-03-15 01:53:00,
2013-03-15 02:58:00,41.7,28.8,29.41,North,0,0.0,2.2,60,0.16,,,0.26,WUHU216HW,2013-03-15 01:58:00,
2013-03-15 03:03:00,41.1,31.7,29.41,NNE,23,6.2,7.1,69,0.14,,,0.26,WUHU216HW,2013-03-15 02:03:00,
2013-03-15 03:08:00,40.8,32.4,29.41,ESE,113,6.7,7.1,72,0.16,,,0.28,WUHU216HW,2013-03-15 02:08:00,
2013-03-15 03:13:00,40.8,32.7,29.41,ESE,113,5.1,6.9,73,0.17,,,0.31,WUHU216HW,2013-03-15 02:13:00,
2013-03-15 03:18:00,40.4,32.9,29.42,ENE,68,12.3,12.3,74,0.17,,,0.33,WUHU216HW,2013-03-15 02:18:00,
2013-03-15 03:23:00,40.2,32.5,29.42,East,90,6.4,12.3,74,0.14,,,0.33,WUHU216HW,2013-03-15 02:23:00,
2013-03-15 03:28:00,40.1,31.7,29.42,East,90,6.9,9.1,72,0.15,,,0.35,WUHU216HW,2013-03-15 02:28:00,
2013-03-15 03:33:00,39.9,31.5,29.43,NE,45,4.9,8.0,72,0.17,,,0.37,WUHU216HW,2013-03-15 02:33:00,
2013-03-15 03:38:00,39.7,31.4,29.43,NE,55,4.6,7.8,72,0.17,,,0.39,WUHU216HW,2013-03-15 02:38:00,
2013-03-15 03:43:00,39.5,30.1,29.43,NE,45,2.9,7.8,69,0.19,,,0.41,WUHU216HW,2013-03-15 02:43:00,
2013-03-15 03:48:00,39.3,29.2,29.43,NE,45,2.4,5.5,67,0.19,,,0.43,WUHU216HW,2013-03-15 02:48:00,
2013-03-15 03:53:00,39.5,28.6,29.43,NNE,23,2.7,3.8,65,0.19,,,0.45,WUHU216HW,2013-03-15 02:53:00,
2013-03-15 03:58:00,39.3,28.1,29.43,SSE,158,0.0,3.8,64,0.19,,,0.45,WUHU216HW,2013-03-15 02:58:00,
2013-03-15 04:03:00,39.5,28.2,29.43,SSW,203,0.0,2.0,64,0.17,,,0.45,WUHU216HW,2013-03-15 03:03:00,
2013-03-15 04:08:00,39.7,28.0,29.43,SSW,203,3.1,3.8,63,0.17,,,0.45,WUHU216HW,2013-03-15 03:08:00,
2013-03-15 04:14:00,39.7,28.0,29.43,West,270,0.0,3.8,63,0.16,,,0.47,WUHU216HW,2013-03-15 03:14:00,
2013-03-15 04:19:00,39.5,27.9,29.44,SSW,203,0.0,1.5,63,0.16,,,0.49,WUHU216HW,2013-03-15 03:19:00,
2013-03-15 04:24:00,39.5,27.5,29.43,North,0,1.7,1.7,62,0.18,,,0.51,WUHU216HW,2013-03-15 03:24:00,
2013-03-15 04:29:00,39.3,26.6,29.43,NNE,23,3.1,3.3,60,0.18,,,0.53,WUHU216HW,2013-03-15 03:29:00,
2013-03-15 04:34:00,39.0,27.3,29.44,North,9,3.8,5.5,63,0.18,,,0.55,WUHU216HW,2013-03-15 03:34:00,
2013-03-15 04:39:00,38.8,27.2,29.45,North,350,2.4,5.5,63,0.18,,,0.57,WUHU216HW,2013-03-15 03:39:00,
2013-03-15 04:44:00,38.8,26.5,29.45,SE,135,5.5,5.5,62,0.18,,,0.59,WUHU216HW,2013-03-15 03:44:00,
2013-03-15 04:49:00,37.9,26.7,29.45,South,180,5.4,10.2,64,0.18,,,0.61,WUHU216HW,2013-03-15 03:49:00,
2013-03-15 04:54:00,37.7,26.2,29.45,SSW,203,8.9,10.2,63,0.20,,,0.65,WUHU216HW,2013-03-15 03:54:00,
2013-03-15 04:59:00,37.2,25.7,29.45,SW,225,2.8,8.9,63,0.22,,,0.67,WUHU216HW,2013-03-15 03:59:00,
2013-03-15 05:00:00,37.2,25.7,29.46,SW,225,2.2,8.9,63,0.22,,,0.67,WUHU216HW,2013-03-15 04:00:00,
2013-03-15 05:05:00,36.6,24.8,29.46,WSW,248,0.0,4.2,62,0.22,,,0.67,WUHU216HW,2013-03-15 04:05:00,
2013-03-15 05:10:00,36.5,24.3,29.46,South,180,0.0,4.2,61,0.22,,,0.69,WUHU216HW,2013-03-15 04:10:00,
2013-03-15 05:15:00,36.5,24.3,29.46,ESE,113,0.0,0.0,61,0.22,,,0.69,WUHU216HW,2013-03-15 04:15:00,
2013-03-15 05:20:00,36.1,24.0,29.45,East,90,0.8,0.8,61,0.22,,,0.71,WUHU216HW,2013-03-15 04:20:00,
2013-03-15 05:25:00,36.1,22.8,29.45,North,350,3.5,4.0,58,0.20,,,0.71,WUHU216HW,2013-03-15 04:25:00,
2013-03-15 05:30:00,37.2,22.4,29.45,NE,45,7.3,8.5,54,0.18,,,0.73,WUHU216HW,2013-03-15 04:30:00,
2013-03-15 05:35:00,37.7,23.8,29.46,East,90,2.2,8.5,57,0.16,,,0.73,WUHU216HW,2013-03-15 04:35:00,
2013-03-15 05:40:00,37.2,24.6,29.46,SW,225,6.7,8.0,60,0.17,,,0.76,WUHU216HW,2013-03-15 04:40:00,
2013-03-15 05:45:00,36.5,24.3,29.46,SW,225,2.9,8.0,61,0.15,,,0.76,WUHU216HW,2013-03-15 04:45:00,
2013-03-15 05:50:00,36.3,23.3,29.47,WNW,293,0.8,5.5,59,0.13,,,0.76,WUHU216HW,2013-03-15 04:50:00,
2013-03-15 05:55:00,36.6,23.2,29.47,SSW,203,1.8,2.4,58,0.11,,,0.76,WUHU216HW,2013-03-15 04:55:00,
2013-03-15 06:01:00,37.2,23.7,29.47,SSE,158,1.8,2.6,58,0.09,,,0.76,WUHU216HW,2013-03-15 05:01:00,
2013-03-15 06:06:00,37.2,23.7,29.47,SSW,203,3.8,3.8,58,0.09,,,0.76,WUHU216HW,2013-03-15 05:06:00,
2013-03-15 06:11:00,37.2,23.3,29.48,SW,225,2.9,4.6,57,0.07,,,0.76,WUHU216HW,2013-03-15 05:11:00,
2013-03-15 06:16:00,37.2,23.7,29.48,WSW,248,4.0,4.6,58,0.07,,,0.76,WUHU216HW,2013-03-15 05:16:00,
2013-03-15 06:20:00,37.0,23.6,29.48,SW,215,4.1,6.0,58,0.05,,,0.76,WUHU216HW,2013-03-15 05:20:00,
2013-03-15 06:26:00,37.2,22.9,29.49,WSW,248,0.0,6.0,56,0.03,,,0.76,WUHU216HW,2013-03-15 05:26:00,
2013-03-15 06:31:00,37.2,22.9,29.49,ESE,113,0.0,2.9,56,0.03,,,0.76,WUHU216HW,2013-03-15 05:31:00,
2013-03-15 06:36:00,37.5,22.8,29.48,NNE,23,0.8,2.9,55,0.02,,,0.78,WUHU216HW,2013-03-15 05:36:00,
2013-03-15 06:41:00,37.5,22.3,29.48,North,349,1.9,2.6,54,0.02,,,0.78,WUHU216HW,2013-03-15 05:41:00,
2013-03-15 06:46:00,37.9,22.6,29.48,NE,45,3.1,3.1,54,0.02,,,0.78,WUHU216HW,2013-03-15 05:46:00,
2013-03-15 06:51:00,38.1,22.8,29.48,NNE,30,1.1,4.2,54,0.04,,,0.80,WUHU216HW,2013-03-15 05:51:00,
2013-03-15 06:56:00,38.4,25.3,29.48,NE,46,5.8,13.4,59,0.04,,,0.80,WUHU216HW,2013-03-15 05:56:00,
2013-03-15 07:01:00,39.0,28.9,29.48,ESE,113,10.7,13.4,67,0.06,,,0.82,WUHU216HW,2013-03-15 06:01:00,
2013-03-15 07:06:00,39.3,30.0,29.49,ENE,68,9.6,10.7,69,0.06,,,0.82,WUHU216HW,2013-03-15 06:06:00,
2013-03-15 07:11:00,39.3,31.0,29.48,ESE,117,4.1,9.6,72,0.06,,,0.82,WUHU216HW,2013-03-15 06:11:00,
2013-03-15 07:16:00,39.5,31.5,29.49,South,185,2.5,7.6,73,0.06,,,0.82,WUHU216HW,2013-03-15 06:16:00,
2013-03-15 07:21:00,39.3,30.7,29.49,ENE,68,3.5,3.5,71,0.06,,,0.82,WUHU216HW,2013-03-15 06:21:00,
2013-03-15 07:26:00,39.5,31.2,29.49,WSW,248,0.0,3.5,72,0.06,,,0.82,WUHU216HW,2013-03-15 06:26:00,
2013-03-15 07:31:00,39.7,31.4,29.49,SSE,165,3.5,4.6,72,0.06,,,0.82,WUHU216HW,2013-03-15 06:31:00,
2013-03-15 07:36:00,39.0,30.3,29.49,ESE,121,1.4,4.6,71,0.04,,,0.82,WUHU216HW,2013-03-15 06:36:00,
2013-03-15 07:41:00,39.3,30.3,29.49,East,90,0.0,3.5,70,0.04,,,0.82,WUHU216HW,2013-03-15 06:41:00,
2013-03-15 07:46:00,39.3,31.7,29.50,ENE,68,6.3,7.3,74,0.04,,,0.82,WUHU216HW,2013-03-15 06:46:00,
2013-03-15 07:51:00,39.9,33.2,29.50,North,0,2.6,7.3,77,0.03,,,0.83,WUHU216HW,2013-03-15 06:51:00,
2013-03-15 07:56:00,40.4,33.7,29.50,NW,306,3.8,5.1,77,0.03,,,0.83,WUHU216HW,2013-03-15 06:56:00,
2013-03-15 08:01:00,40.1,33.4,29.51,WNW,293,5.1,5.1,76,0.01,,,0.83,WUHU216HW,2013-03-15 07:01:00,
2013-03-15 08:06:00,39.9,33.2,29.50,West,272,4.2,5.3,77,0.01,,,0.83,WUHU216HW,2013-03-15 07:06:00,
2013-03-15 08:11:00,40.1,33.0,29.51,SSE,158,0.0,5.3,76,0.01,,,0.83,WUHU216HW,2013-03-15 07:11:00,
2013-03-15 08:16:00,40.1,32.4,29.51,SSE,158,2.0,7.3,74,0.01,,,0.83,WUHU216HW,2013-03-15 07:16:00,
2013-03-15 08:21:00,40.1,32.0,29.51,WSW,251,3.3,7.3,73,0.01,,,0.83,WUHU216HW,2013-03-15 07:21:00,
2013-03-15 08:26:00,40.2,32.2,29.52,WSW,248,2.6,5.1,73,0.01,,,0.83,WUHU216HW,2013-03-15 07:26:00,
2013-03-15 08:31:00,40.4,32.4,29.52,WSW,248,2.4,5.1,73,0.01,,,0.83,WUHU216HW,2013-03-15 07:31:00,
2013-03-15 08:36:00,40.4,32.4,29.52,SW,225,2.6,8.7,73,0.01,,,0.83,WUHU216HW,2013-03-15 07:36:00,
2013-03-15 08:41:00,40.6,32.6,29.52,SSW,207,4.1,8.7,73,0.01,,,0.83,WUHU216HW,2013-03-15 07:41:00,
2013-03-15 08:46:00,40.6,32.6,29.53,SW,225,1.5,5.8,73,0.00,,,0.83,WUHU216HW,2013-03-15 07:46:00,
2013-03-15 08:51:00,40.8,32.7,29.53,SW,234,1.6,5.3,73,0.00,,,0.83,WUHU216HW,2013-03-15 07:51:00,
2013-03-15 08:56:00,40.8,33.1,29.54,SSW,203,3.5,5.3,74,0.00,,,0.83,WUHU216HW,2013-03-15 07:56:00,
2013-03-15 09:01:00,41.1,33.8,29.54,SSW,203,2.6,4.4,75,0.00,,,0.83,WUHU216HW,2013-03-15 08:01:00,
2013-03-15 09:06:00,41.3,33.6,29.54,East,90,2.4,3.5,74,0.00,,,0.83,WUHU216HW,2013-03-15 08:06:00,
2013-03-15 09:12:00,41.3,34.3,29.54,East,86,2.1,3.5,76,0.00,,,0.83,WUHU216HW,2013-03-15 08:12:00,
2013-03-15 09:17:00,41.9,35.4,29.54,NE,45,1.3,2.6,78,0.00,,,0.83,WUHU216HW,2013-03-15 08:17:00,
2013-03-15 09:22:00,42.4,35.3,29.55,ENE,58,1.8,6.0,76,0.00,,,0.83,WUHU216HW,2013-03-15 08:22:00,
2013-03-15 09:27:00,42.6,34.9,29.55,ESE,113,7.6,7.6,74,0.00,,,0.83,WUHU216HW,2013-03-15 08:27:00,
2013-03-15 09:32:00,42.9,34.9,29.55,East,90,6.4,7.6,73,0.00,,,0.83,WUHU216HW,2013-03-15 08:32:00,
2013-03-15 09:37:00,43.1,34.4,29.56,East,87,4.8,6.4,71,0.00,,,0.83,WUHU216HW,2013-03-15 08:37:00,
2013-03-15 09:42:00,43.3,33.8,29.55,East,88,6.8,10.5,69,0.00,,,0.83,WUHU216HW,2013-03-15 08:42:00,
2013-03-15 09:47:00,43.3,33.8,29.55,ENE,78,7.3,11.1,69,0.00,,,0.83,WUHU216HW,2013-03-15 08:47:00,
2013-03-15 09:52:00,43.3,33.4,29.56,South,180,4.9,11.4,68,0.00,,,0.83,WUHU216HW,2013-03-15 08:52:00,
2013-03-15 09:57:00,43.5,33.2,29.56,ESE,106,6.8,11.4,67,0.00,,,0.83,WUHU216HW,2013-03-15 08:57:00,
2013-03-15 10:02:00,43.7,33.0,29.56,East,90,11.6,12.9,66,0.00,,,0.83,WUHU216HW,2013-03-15 09:02:00,
2013-03-15 10:07:00,43.8,32.8,29.56,SE,126,8.4,12.9,65,0.00,,,0.83,WUHU216HW,2013-03-15 09:07:00,
2013-03-15 10:12:00,43.8,32.0,29.56,ESE,113,13.6,13.6,63,0.00,,,0.83,WUHU216HW,2013-03-15 09:12:00,
2013-03-15 10:17:00,44.0,32.6,29.56,SE,145,13.8,14.0,64,0.00,,,0.83,WUHU216HW,2013-03-15 09:17:00,
2013-03-15 10:22:00,44.0,32.6,29.56,ESE,121,10.1,14.0,64,0.00,,,0.83,WUHU216HW,2013-03-15 09:22:00,
2013-03-15 10:27:00,43.7,32.4,29.57,East,79,11.3,14.5,64,0.00,,,0.83,WUHU216HW,2013-03-15 09:27:00,
2013-03-15 10:32:00,43.7,31.8,29.57,ENE,68,8.0,16.7,63,0.00,,,0.83,WUHU216HW,2013-03-15 09:32:00,
2013-03-15 10:37:00,43.8,32.4,29.57,ESE,113,14.5,16.7,64,0.00,,,0.83,WUHU216HW,2013-03-15 09:37:00,
2013-03-15 10:42:00,43.7,32.2,29.57,ESE,113,11.6,14.5,64,0.00,,,0.83,WUHU216HW,2013-03-15 09:42:00,
2013-03-15 10:47:00,43.7,31.8,29.58,East,90,9.1,16.3,63,0.00,,,0.83,WUHU216HW,2013-03-15 09:47:00,
2013-03-15 10:52:00,43.5,32.5,29.58,ESE,113,7.3,16.3,65,0.00,,,0.83,WUHU216HW,2013-03-15 09:52:00,
2013-03-15 10:57:00,43.7,32.6,29.58,SE,135,5.1,11.8,65,0.00,,,0.83,WUHU216HW,2013-03-15 09:57:00,
2013-03-15 11:02:00,43.7,32.2,29.58,East,90,7.4,16.1,64,0.00,,,0.83,WUHU216HW,2013-03-15 10:02:00,
2013-03-15 11:07:00,43.8,32.4,29.58,East,90,9.1,16.1,64,0.00,,,0.83,WUHU216HW,2013-03-15 10:07:00,
2013-03-15 11:12:00,44.2,32.4,29.59,East,90,12.9,13.1,63,0.00,,,0.83,WUHU216HW,2013-03-15 10:12:00,
2013-03-15 11:17:00,44.4,32.2,29.59,ENE,78,11.0,12.9,62,0.00,,,0.83,WUHU216HW,2013-03-15 10:17:00,
2013-03-15 11:22:00,44.4,32.5,29.59,East,79,8.4,12.0,63,0.00,,,0.83,WUHU216HW,2013-03-15 10:22:00,
2013-03-15 11:27:00,44.4,32.2,29.60,South,180,7.1,11.6,62,0.00,,,0.83,WUHU216HW,2013-03-15 10:27:00,
2013-03-15 11:32:00,44.4,32.5,29.60,ENE,68,9.3,13.8,63,0.00,,,0.83,WUHU216HW,2013-03-15 10:32:00,
2013-03-15 11:37:00,44.2,32.7,29.60,ENE,68,10.2,13.8,64,0.00,,,0.83,WUHU216HW,2013-03-15 10:37:00,
2013-03-15 11:42:00,44.2,32.4,29.60,ESE,106,10.1,17.0,63,0.00,,,0.83,WUHU216HW,2013-03-15 10:42:00,
2013-03-15 11:47:00,44.2,32.4,29.61,ESE,113,14.9,17.0,63,0.00,,,0.83,WUHU216HW,2013-03-15 10:47:00,
2013-03-15 11:52:00,43.8,32.4,29.61,ENE,68,9.8,14.9,64,0.00,,,0.83,WUHU216HW,2013-03-15 10:52:00,
2013-03-15 11:57:00,43.8,32.4,29.61,East,80,4.9,14.0,64,0.00,,,0.83,WUHU216HW,2013-03-15 10:57:00,
2013-03-15 12:02:00,43.8,32.4,29.60,East,95,10.1,15.6,64,0.00,,,0.83,WUHU216HW,2013-03-15 11:02:00,
2013-03-15 12:07:00,44.2,32.7,29.61,ESE,121,13.8,16.7,64,0.00,,,0.83,WUHU216HW,2013-03-15 11:07:00,
2013-03-15 12:12:00,44.4,32.9,29.61,SE,135,10.1,16.7,64,0.00,,,0.83,WUHU216HW,2013-03-15 11:12:00,
2013-03-15 12:17:00,44.4,32.2,29.62,ESE,113,8.7,15.8,62,0.00,,,0.83,WUHU216HW,2013-03-15 11:17:00,
2013-03-15 12:22:00,44.4,31.8,29.62,SSE,153,5.1,17.2,61,0.00,,,0.83,WUHU216HW,2013-03-15 11:22:00,
2013-03-15 12:27:00,44.6,32.0,29.63,ESE,113,8.7,17.2,62,0.00,,,0.83,WUHU216HW,2013-03-15 11:27:00,
2013-03-15 12:32:00,44.6,32.2,29.63,SE,135,15.2,15.2,62,0.00,,,0.83,WUHU216HW,2013-03-15 11:32:00,
2013-03-15 12:37:00,44.2,31.6,29.63,SE,125,13.5,15.2,61,0.00,,,0.83,WUHU216HW,2013-03-15 11:37:00,
2013-03-15 12:42:00,44.4,32.2,29.63,SE,132,10.1,14.7,62,0.00,,,0.83,WUHU216HW,2013-03-15 11:42:00,
2013-03-15 12:47:00,44.2,31.2,29.63,East,97,9.1,12.3,60,0.00,,,0.83,WUHU216HW,2013-03-15 11:47:00,
2013-03-15 12:52:00,44.2,31.2,29.63,SE,128,8.6,12.3,60,0.00,,,0.83,WUHU216HW,2013-03-15 11:52:00,
2013-03-15 12:57:00,44.0,31.4,29.63,ESE,113,7.3,16.5,61,0.00,,,0.83,WUHU216HW,2013-03-15 11:57:00,
2013-03-15 13:02:00,43.8,31.6,29.63,ENE,68,18.2,19.9,62,0.00,,,0.83,WUHU216HW,2013-03-15 12:02:00,
2013-03-15 13:07:00,43.7,31.1,29.63,SE,135,8.4,19.9,61,0.00,,,0.83,WUHU216HW,2013-03-15 12:07:00,
2013-03-15 13:12:00,43.7,31.1,29.63,ENE,68,14.5,14.5,61,0.00,,,0.83,WUHU216HW,2013-03-15 12:12:00,
2013-03-15 13:17:00,43.7,31.1,29.63,East,90,10.2,16.3,61,0.00,,,0.83,WUHU216HW,2013-03-15 12:17:00,
2013-03-15 13:23:00,43.7,31.5,29.63,ENE,57,10.1,16.3,62,0.00,,,0.83,WUHU216HW,2013-03-15 12:23:00,
2013-03-15 13:28:00,43.8,31.2,29.63,ENE,61,4.1,15.4,61,0.00,,,0.83,WUHU216HW,2013-03-15 12:28:00,
2013-03-15 13:33:00,44.0,31.6,29.64,ENE,61,12.0,16.7,61,0.00,,,0.83,WUHU216HW,2013-03-15 12:33:00,
2013-03-15 13:38:00,43.8,31.2,29.64,East,90,6.9,16.7,61,0.00,,,0.83,WUHU216HW,2013-03-15 12:38:00,
2013-03-15 13:43:00,44.0,31.4,29.64,East,90,7.6,19.6,61,0.00,,,0.83,WUHU216HW,2013-03-15 12:43:00,
2013-03-15 13:48:00,43.8,31.2,29.65,ENE,73,9.6,19.6,61,0.00,,,0.83,WUHU216HW,2013-03-15 12:48:00,
2013-03-15 13:53:00,43.8,31.2,29.65,ESE,113,11.8,15.6,61,0.00,,,0.83,WUHU216HW,2013-03-15 12:53:00,
2013-03-15 13:58:00,44.2,31.6,29.65,ENE,68,5.8,11.8,61,0.00,,,0.83,WUHU216HW,2013-03-15 12:58:00,
2013-03-15 14:05:00,44.4,31.8,29.65,SSE,159,5.2,11.8,61,0.00,,,0.83,WUHU216HW,2013-03-15 13:05:00,
2013-03-15 14:10:00,44.0,31.2,29.65,ESE,113,4.6,15.8,61,0.00,,,0.83,WUHU216HW,2013-03-15 13:10:00,
2013-03-15 14:15:00,43.7,31.5,29.65,ESE,113,14.9,19.9,62,0.00,,,0.83,WUHU216HW,2013-03-15 13:15:00,
2013-03-15 14:20:00,43.5,31.7,29.66,East,90,8.2,19.9,63,0.00,,,0.83,WUHU216HW,2013-03-15 13:20:00,
2013-03-15 14:25:00,43.3,31.5,29.66,ENE,68,4.6,11.6,63,0.00,,,0.83,WUHU216HW,2013-03-15 13:25:00,
2013-03-15 14:30:00,43.5,31.7,29.67,SE,135,7.3,10.5,63,0.00,,,0.83,WUHU216HW,2013-03-15 13:30:00,
2013-03-15 14:35:00,43.3,30.7,29.67,East,90,6.7,10.5,61,0.00,,,0.83,WUHU216HW,2013-03-15 13:35:00,
2013-03-15 14:40:00,43.3,31.1,29.66,ENE,73,7.0,8.7,63,0.00,,,0.83,WUHU216HW,2013-03-15 13:40:00,
2013-03-15 14:45:00,43.3,31.1,29.67,East,99,8.8,11.4,62,0.00,,,0.83,WUHU216HW,2013-03-15 13:45:00,
2013-03-15 14:50:00,43.3,31.1,29.67,ESE,113,5.3,11.4,62,0.00,,,0.83,WUHU216HW,2013-03-15 13:50:00,
2013-03-15 14:55:00,43.3,31.1,29.68,East,90,5.8,10.5,62,0.00,,,0.83,WUHU216HW,2013-03-15 13:55:00,
2013-03-15 15:00:00,43.1,30.9,29.68,East,95,9.6,15.6,62,0.00,,,0.83,WUHU216HW,2013-03-15 14:00:00,
2013-03-15 15:05:00,43.1,30.9,29.68,ENE,68,10.5,15.6,62,0.00,,,0.83,WUHU216HW,2013-03-15 14:05:00,
2013-03-15 15:10:00,43.1,30.9,29.69,NE,55,8.5,11.1,62,0.00,,,0.83,WUHU216HW,2013-03-15 14:10:00,
2013-03-15 15:15:00,42.9,30.7,29.68,SE,135,9.3,11.1,62,0.00,,,0.83,WUHU216HW,2013-03-15 14:15:00,
2013-03-15 15:20:00,42.9,30.7,29.68,SSE,166,7.3,11.6,62,0.00,,,0.83,WUHU216HW,2013-03-15 14:20:00,
2013-03-15 15:25:00,42.9,30.7,29.68,ESE,117,4.8,11.6,62,0.00,,,0.83,WUHU216HW,2013-03-15 14:25:00,
2013-03-15 15:30:00,42.9,31.1,29.69,SE,135,7.8,11.8,63,0.00,,,0.83,WUHU216HW,2013-03-15 14:30:00,
2013-03-15 15:35:00,42.6,30.8,29.69,East,90,10.7,11.8,63,0.00,,,0.83,WUHU216HW,2013-03-15 14:35:00,
2013-03-15 15:40:00,42.4,30.6,29.69,NE,50,4.3,10.7,63,0.00,,,0.83,WUHU216HW,2013-03-15 14:40:00,
2013-03-15 15:45:00,42.4,30.6,29.69,NE,45,12.9,12.9,62,0.00,,,0.83,WUHU216HW,2013-03-15 14:45:00,
2013-03-15 15:50:00,42.6,30.8,29.70,ENE,68,8.9,12.9,63,0.00,,,0.83,WUHU216HW,2013-03-15 14:50:00,
2013-03-15 15:55:00,42.6,30.4,29.70,SE,125,6.4,10.5,62,0.00,,,0.83,WUHU216HW,2013-03-15 14:55:00,
2013-03-15 16:00:00,42.8,29.8,29.71,ENE,68,10.0,10.0,61,0.00,,,0.83,WUHU216HW,2013-03-15 15:00:00,
2013-03-15 16:05:00,42.9,30.3,29.71,SE,143,5.9,10.0,61,0.00,,,0.83,WUHU216HW,2013-03-15 15:05:00,
2013-03-15 16:10:00,42.9,30.3,29.71,SE,135,6.2,9.1,61,0.00,,,0.83,WUHU216HW,2013-03-15 15:10:00,
2013-03-15 16:15:00,42.9,30.3,29.71,East,87,5.2,9.1,61,0.00,,,0.83,WUHU216HW,2013-03-15 15:15:00,
2013-03-15 16:20:00,42.9,30.3,29.71,ENE,78,8.3,9.8,61,0.00,,,0.83,WUHU216HW,2013-03-15 15:20:00,
2013-03-15 16:25:00,42.6,29.6,29.72,NE,45,5.1,9.8,61,0.00,,,0.83,WUHU216HW,2013-03-15 15:25:00,
2013-03-15 16:30:00,42.9,30.3,29.72,ENE,78,4.1,8.2,61,0.00,,,0.83,WUHU216HW,2013-03-15 15:30:00,
2013-03-15 16:35:00,42.9,30.3,29.72,North,0,3.5,10.9,61,0.00,,,0.83,WUHU216HW,2013-03-15 15:35:00,
2013-03-15 16:40:00,42.9,30.0,29.73,East,99,7.3,10.9,60,0.00,,,0.83,WUHU216HW,2013-03-15 15:40:00,
2013-03-15 16:45:00,42.9,30.0,29.73,East,99,8.0,10.2,60,0.00,,,0.83,WUHU216HW,2013-03-15 15:45:00,
2013-03-15 16:50:00,42.9,30.0,29.73,SSE,158,5.8,10.0,60,0.00,,,0.83,WUHU216HW,2013-03-15 15:50:00,
2013-03-15 16:55:00,42.9,30.0,29.73,East,90,11.8,11.8,60,0.00,,,0.83,WUHU216HW,2013-03-15 15:55:00,
2013-03-15 17:00:00,42.9,30.0,29.73,ESE,117,4.1,11.8,60,0.00,,,0.83,WUHU216HW,2013-03-15 16:00:00,
2013-03-15 17:05:00,42.8,29.8,29.74,ESE,113,4.2,11.4,60,0.00,,,0.83,WUHU216HW,2013-03-15 16:05:00,
2013-03-15 17:10:00,42.6,29.6,29.74,ENE,71,7.4,12.0,60,0.00,,,0.83,WUHU216HW,2013-03-15 16:10:00,
2013-03-15 17:15:00,42.6,29.6,29.74,ESE,104,6.1,12.0,60,0.00,,,0.83,WUHU216HW,2013-03-15 16:15:00,
2013-03-15 17:20:00,42.6,29.6,29.74,East,90,7.6,10.2,60,0.00,,,0.83,WUHU216HW,2013-03-15 16:20:00,
2013-03-15 17:25:00,42.6,30.0,29.75,East,90,3.3,7.6,61,0.00,,,0.83,WUHU216HW,2013-03-15 16:25:00,
2013-03-15 17:30:00,42.6,30.0,29.75,East,81,4.7,9.6,61,0.00,,,0.83,WUHU216HW,2013-03-15 16:30:00,
2013-03-15 17:35:00,42.4,29.8,29.75,ENE,68,10.9,10.9,61,0.00,,,0.83,WUHU216HW,2013-03-15 16:35:00,
2013-03-15 17:40:00,42.4,30.2,29.76,NE,45,6.2,10.9,62,0.00,,,0.83,WUHU216HW,2013-03-15 16:40:00,
2013-03-15 17:45:00,42.6,30.0,29.76,NE,45,7.8,7.8,61,0.00,,,0.83,WUHU216HW,2013-03-15 16:45:00,
2013-03-15 17:50:00,42.6,30.0,29.76,ESE,113,2.2,8.7,61,0.00,,,0.83,WUHU216HW,2013-03-15 16:50:00,
2013-03-15 17:55:00,42.4,29.8,29.77,ESE,113,8.9,11.8,61,0.00,,,0.83,WUHU216HW,2013-03-15 16:55:00,
2013-03-15 18:00:00,42.6,29.6,29.77,NNE,20,6.1,11.8,60,0.00,,,0.83,WUHU216HW,2013-03-15 17:00:00,
2013-03-15 18:05:00,42.4,29.5,29.78,ESE,113,5.6,9.8,60,0.00,,,0.83,WUHU216HW,2013-03-15 17:05:00,
2013-03-15 18:10:00,42.4,29.8,29.77,ENE,68,4.0,9.8,61,0.00,,,0.83,WUHU216HW,2013-03-15 17:10:00,
2013-03-15 18:15:00,42.2,29.7,29.78,East,90,6.0,6.4,61,0.00,,,0.83,WUHU216HW,2013-03-15 17:15:00,
2013-03-15 18:20:00,42.0,29.5,29.78,North,2,1.8,6.4,61,0.00,,,0.83,WUHU216HW,2013-03-15 17:20:00,
2013-03-15 18:25:00,42.0,29.5,29.78,ENE,68,3.3,4.9,61,0.00,,,0.83,WUHU216HW,2013-03-15 17:25:00,
2013-03-15 18:30:00,42.0,29.1,29.78,NE,56,1.6,6.2,60,0.00,,,0.83,WUHU216HW,2013-03-15 17:30:00,
2013-03-15 18:35:00,42.0,29.1,29.79,NE,45,0.0,6.2,61,0.00,,,0.83,WUHU216HW,2013-03-15 17:35:00,
2013-03-15 18:40:00,42.0,29.5,29.79,North,0,4.4,4.4,61,0.00,,,0.83,WUHU216HW,2013-03-15 17:40:00,
2013-03-15 18:45:00,41.9,29.8,29.80,North,0,0.0,4.4,62,0.00,,,0.83,WUHU216HW,2013-03-15 17:45:00,
2013-03-15 18:50:00,41.9,29.4,29.80,NNE,23,0.0,7.1,61,0.00,,,0.83,WUHU216HW,2013-03-15 17:50:00,
2013-03-15 18:55:00,42.0,29.5,29.80,NE,55,2.2,7.1,61,0.00,,,0.83,WUHU216HW,2013-03-15 17:55:00,
2013-03-15 19:00:00,42.0,29.1,29.81,ENE,68,4.2,5.1,60,0.00,,,0.83,WUHU216HW,2013-03-15 18:00:00,
2013-03-15 19:05:00,42.0,29.1,29.81,NNW,338,10.0,10.0,60,0.00,,,0.83,WUHU216HW,2013-03-15 18:05:00,
2013-03-15 19:10:00,42.0,29.1,29.81,East,90,3.5,10.0,60,0.00,,,0.83,WUHU216HW,2013-03-15 18:10:00,
2013-03-15 19:15:00,41.9,29.4,29.82,NNE,23,0.0,4.0,61,0.00,,,0.83,WUHU216HW,2013-03-15 18:15:00,
2013-03-15 19:20:00,41.7,29.6,29.82,North,0,2.1,3.5,62,0.00,,,0.83,WUHU216HW,2013-03-15 18:20:00,
2013-03-15 19:25:00,41.3,29.6,29.83,ENE,68,2.4,2.4,63,0.00,,,0.83,WUHU216HW,2013-03-15 18:25:00,
2013-03-15 19:30:00,41.5,29.8,29.83,NE,45,2.4,2.4,63,0.00,,,0.83,WUHU216HW,2013-03-15 18:30:00,
2013-03-15 19:35:00,41.3,29.3,29.83,NE,44,2.3,2.9,62,0.00,,,0.83,WUHU216HW,2013-03-15 18:35:00,
2013-03-15 19:40:00,41.3,29.3,29.83,NE,45,3.5,3.5,62,0.00,,,0.83,WUHU216HW,2013-03-15 18:40:00,
2013-03-15 19:45:00,41.1,29.1,29.83,East,90,4.2,4.2,62,0.00,,,0.83,WUHU216HW,2013-03-15 18:45:00,
2013-03-15 19:50:00,41.3,28.9,29.83,NNE,23,2.0,4.2,61,0.00,,,0.83,WUHU216HW,2013-03-15 18:50:00,
2013-03-15 19:55:00,41.1,28.7,29.84,North,0,3.3,3.8,61,0.00,,,0.83,WUHU216HW,2013-03-15 18:55:00,
2013-03-15 20:00:00,41.0,28.9,29.84,NNE,23,0.0,3.8,62,0.00,,,0.83,WUHU216HW,2013-03-15 19:00:00,
2013-03-15 20:05:00,41.0,28.2,29.84,NNE,23,6.0,6.0,60,0.00,,,0.83,WUHU216HW,2013-03-15 19:05:00,
2013-03-15 20:10:00,41.1,27.9,29.84,NNE,23,2.9,6.0,59,0.00,,,0.83,WUHU216HW,2013-03-15 19:10:00,
2013-03-15 20:15:00,41.1,27.4,29.84,ENE,58,3.8,6.7,58,0.00,,,0.83,WUHU216HW,2013-03-15 19:15:00,
2013-03-15 20:20:00,41.5,27.3,29.84,ENE,57,7.3,8.0,57,0.00,,,0.83,WUHU216HW,2013-03-15 19:20:00,
2013-03-15 20:25:00,41.7,27.5,29.85,ENE,68,2.2,8.0,57,0.00,,,0.83,WUHU216HW,2013-03-15 19:25:00,
2013-03-15 20:30:00,41.3,27.6,29.86,North,1,2.1,5.1,58,0.00,,,0.83,WUHU216HW,2013-03-15 19:30:00,
2013-03-15 20:35:00,40.8,27.5,29.85,NNW,338,3.1,3.8,59,0.00,,,0.83,WUHU216HW,2013-03-15 19:35:00,
2013-03-15 20:40:00,41.1,26.5,29.86,ENE,68,7.1,7.1,56,0.00,,,0.83,WUHU216HW,2013-03-15 19:40:00,
2013-03-15 20:45:00,41.9,25.9,29.86,NE,45,2.5,15.2,53,0.00,,,0.83,WUHU216HW,2013-03-15 19:45:00,
2013-03-15 20:50:00,42.0,25.2,29.86,NE,55,3.7,15.2,51,0.00,,,0.83,WUHU216HW,2013-03-15 19:50:00,
2013-03-15 20:55:00,42.6,25.3,29.86,NNE,23,2.6,7.1,50,0.00,,,0.83,WUHU216HW,2013-03-15 19:55:00,
2013-03-15 21:00:00,42.6,25.3,29.86,NE,54,1.9,6.7,50,0.00,,,0.83,WUHU216HW,2013-03-15 20:00:00,
2013-03-15 21:05:00,42.6,25.3,29.87,NE,45,8.0,8.0,50,0.00,,,0.83,WUHU216HW,2013-03-15 20:05:00,
2013-03-15 21:10:00,42.6,25.3,29.86,East,90,4.4,8.0,50,0.00,,,0.83,WUHU216HW,2013-03-15 20:10:00,
2013-03-15 21:15:00,42.6,25.7,29.87,ENE,68,7.1,7.6,51,0.00,,,0.83,WUHU216HW,2013-03-15 20:15:00,
2013-03-15 21:20:00,42.6,25.7,29.86,ENE,68,6.2,7.6,51,0.00,,,0.83,WUHU216HW,2013-03-15 20:20:00,
2013-03-15 21:25:00,42.4,26.0,29.87,NE,56,5.9,6.9,52,0.00,,,0.83,WUHU216HW,2013-03-15 20:25:00,
2013-03-15 21:30:00,42.4,26.0,29.87,ENE,68,5.0,7.6,52,0.00,,,0.83,WUHU216HW,2013-03-15 20:30:00,
2013-03-15 21:35:00,42.0,26.5,29.87,NE,45,2.6,7.6,54,0.00,,,0.83,WUHU216HW,2013-03-15 20:35:00,
2013-03-15 21:40:00,41.9,26.8,29.87,NNE,23,2.6,3.1,55,0.00,,,0.83,WUHU216HW,2013-03-15 20:40:00,
2013-03-15 21:45:00,41.7,27.0,29.87,ENE,68,3.1,3.8,56,0.00,,,0.83,WUHU216HW,2013-03-15 20:45:00,
2013-03-15 21:50:00,41.7,27.0,29.87,East,86,3.8,6.4,56,0.00,,,0.83,WUHU216HW,2013-03-15 20:50:00,
2013-03-15 21:55:00,41.7,27.5,29.88,NNW,338,1.3,6.4,57,0.00,,,0.83,WUHU216HW,2013-03-15 20:55:00,
2013-03-15 22:00:00,41.7,27.5,29.88,NE,45,0.0,2.6,57,0.00,,,0.83,WUHU216HW,2013-03-15 21:00:00,
2013-03-15 22:05:00,41.5,27.3,29.89,ENE,68,0.0,1.5,57,0.00,,,0.83,WUHU216HW,2013-03-15 21:05:00,
2013-03-15 22:10:00,41.1,27.9,29.89,NW,315,0.0,0.0,59,0.00,,,0.83,WUHU216HW,2013-03-15 21:10:00,
2013-03-15 22:15:00,40.8,28.0,29.89,SE,135,0.0,3.1,60,0.00,,,0.83,WUHU216HW,2013-03-15 21:15:00,
2013-03-15 22:20:00,40.6,27.8,29.89,ESE,113,1.5,3.1,60,0.00,,,0.83,WUHU216HW,2013-03-15 21:20:00,
2013-03-15 22:25:00,40.1,28.0,29.89,NE,45,0.8,1.7,62,0.00,,,0.83,WUHU216HW,2013-03-15 21:25:00,
2013-03-15 22:30:00,39.9,27.8,29.90,WNW,293,0.0,1.7,62,0.00,,,0.83,WUHU216HW,2013-03-15 21:30:00,
2013-03-15 22:35:00,39.7,28.4,29.89,SSE,158,1.3,1.3,64,0.00,,,0.83,WUHU216HW,2013-03-15 21:35:00,
2013-03-15 22:40:00,39.7,28.4,29.89,SSW,203,0.0,3.5,64,0.00,,,0.83,WUHU216HW,2013-03-15 21:40:00,
2013-03-15 22:46:00,39.7,28.8,29.89,WSW,248,0.6,3.5,65,0.00,,,0.83,WUHU216HW,2013-03-15 21:46:00,
2013-03-15 22:51:00,39.7,29.2,29.90,WSW,248,0.0,0.8,66,0.00,,,0.83,WUHU216HW,2013-03-15 21:51:00,
2013-03-15 22:55:00,39.7,29.6,29.90,ENE,68,2.2,2.2,67,0.00,,,0.83,WUHU216HW,2013-03-15 21:55:00,
2013-03-15 23:00:00,39.3,29.2,29.90,South,180,0.0,2.2,67,0.00,,,0.83,WUHU216HW,2013-03-15 22:00:00,
2013-03-15 23:05:00,39.3,29.2,29.90,South,180,1.1,1.1,67,0.00,,,0.83,WUHU216HW,2013-03-15 22:05:00,
2013-03-15 23:10:00,39.3,29.2,29.90,SSW,194,2.0,2.4,67,0.00,,,0.83,WUHU216HW,2013-03-15 22:10:00,
2013-03-15 23:15:00,39.3,29.6,29.90,SE,135,2.2,4.4,68,0.00,,,0.83,WUHU216HW,2013-03-15 22:15:00,
2013-03-15 23:20:00,39.3,29.2,29.91,South,180,1.3,4.4,67,0.00,,,0.83,WUHU216HW,2013-03-15 22:20:00,
2013-03-15 23:25:00,39.3,28.8,29.91,WSW,248,0.0,1.3,66,0.00,,,0.83,WUHU216HW,2013-03-15 22:25:00,
2013-03-15 23:30:00,39.3,28.8,29.90,South,180,0.8,2.0,66,0.00,,,0.83,WUHU216HW,2013-03-15 22:30:00,
2013-03-15 23:35:00,39.3,28.8,29.91,SSW,203,0.0,2.0,66,0.00,,,0.83,WUHU216HW,2013-03-15 22:35:00,
2013-03-15 23:40:00,39.7,28.4,29.91,WSW,248,3.5,3.5,64,0.00,,,0.83,WUHU216HW,2013-03-15 22:40:00,
2013-03-15 23:45:00,39.9,28.6,29.91,North,0,2.4,3.5,64,0.00,,,0.83,WUHU216HW,2013-03-15 22:45:00,
2013-03-15 23:50:00,39.3,28.8,29.91,NW,315,2.4,3.3,66,0.00,,,0.83,WUHU216HW,2013-03-15 22:50:00,
2013-03-15 23:55:00,39.3,28.4,29.91,West,270,1.7,3.3,65,0.00,,,0.83,WUHU216HW,2013-03-15 22:55:00,